Time;durP1;ratioP1;P1;durP2;ratioP2;P2;SDS_P1;SDS_P2;PMS_P1;PMS_P2;Temp;Humidity;BMP_temperature;BMP_pressure;BME280_temperature;BME280_humidity;BME280_pressure;Samples;Min_cycle;Max_cycle;Signal;HPM_P1;HPM_P2
2022/05/23 00:02:05;;;;;;;;;;;;;;;16.18;55.92;97359.91;5143319;27;20304;-59
2022/05/23 00:04:58;;;;;;;;;;;;;;;15.98;56.47;97352.88;5146064;27;19919;-59
2022/05/23 00:07:51;;;;;;;;;;;;;;;16.07;55.75;97347.16;5148933;27;19934;-59
2022/05/23 00:10:21;;;;;;;;;;;;;;;15.96;56.09;97342.25;5141815;27;20010;-58
2022/05/23 00:12:49;;;;;;;;;;;;;;;15.93;56.09;97344.94;5151180;27;19923;-59
2022/05/23 00:15:21;;;;;;;;;;;;;;;15.97;56.29;97337.56;5152489;27;20023;-58
2022/05/23 00:17:50;;;;;;;;;;;;;;;15.93;55.66;97326.56;5154613;27;19935;-59
2022/05/23 00:20:22;;;;;;;;;;;;;;;15.93;55.24;97325.75;5136846;27;20045;-59
2022/05/23 00:22:50;;;;;;;;;;;;;;;16.20;54.66;97330.22;5153390;27;19930;-58
2022/05/23 00:25:18;;;;;;;;;;;;;;;16.15;54.08;97336.00;5152619;27;20002;-58
2022/05/23 00:27:49;;;;;;;;;;;;;;;16.36;53.49;97332.06;5158917;27;19964;-58
2022/05/23 00:30:19;;;;;;;;;;;;;;;16.28;53.36;97341.31;5146426;27;19927;-58
2022/05/23 00:35:35;;;;;;;;;;;;;;;16.33;53.14;97338.28;5161248;27;19958;-58
2022/05/23 00:38:03;;;;;;;;;;;;;;;16.19;53.23;97347.00;5134987;27;20376;-59
2022/05/23 00:40:39;;;;;;;;;;;;;;;16.17;53.14;97347.38;5152970;27;20023;-59
2022/05/23 00:43:14;;;;;;;;;;;;;;;16.25;53.05;97345.59;5135743;27;19919;-59
2022/05/23 00:45:44;;;;;;;;;;;;;;;16.34;52.28;97345.34;5159861;27;20330;-59
2022/05/23 00:48:12;;;;;;;;;;;;;;;16.26;52.68;97360.06;5156546;27;19968;-59
2022/05/23 00:50:42;;;;;;;;;;;;;;;16.23;52.92;97361.56;5131481;27;20358;-59
2022/05/23 00:53:10;;;;;;;;;;;;;;;16.25;52.84;97367.50;5142259;27;20330;-59
2022/05/23 00:55:39;;;;;;;;;;;;;;;16.21;52.60;97364.69;5154044;27;20010;-59
2022/05/23 00:58:08;;;;;;;;;;;;;;;16.19;52.84;97357.97;5159107;27;19961;-59
2022/05/23 01:00:39;;;;;;;;;;;;;;;16.16;52.89;97356.75;5151372;27;20426;-59
2022/05/23 01:03:08;;;;;;;;;;;;;;;16.23;52.81;97350.63;5151845;27;19962;-59
2022/05/23 01:05:36;;;;;;;;;;;;;;;16.27;52.67;97356.97;5153551;27;20398;-59
2022/05/23 01:08:06;;;;;;;;;;;;;;;16.34;52.47;97357.09;5158468;27;19918;-59
2022/05/23 01:10:38;;;;;;;;;;;;;;;16.16;53.08;97351.28;5141501;27;20013;-58
2022/05/23 01:13:32;;;;;;;;;;;;;;;16.02;53.53;97345.50;5126120;27;20243;-59
2022/05/23 01:16:01;;;;;;;;;;;;;;;16.09;53.32;97342.91;5128661;27;20006;-58
2022/05/23 01:18:37;;;;;;;;;;;;;;;16.00;53.76;97350.56;5124847;27;19935;-59
2022/05/23 01:21:05;;;;;;;;;;;;;;;16.07;53.38;97347.16;5139787;27;20009;-60
2022/05/23 01:23:36;;;;;;;;;;;;;;;16.00;53.62;97334.13;5134615;27;19946;-59
2022/05/23 01:26:33;;;;;;;;;;;;;;;16.11;53.46;97321.41;5148070;27;19938;-58
2022/05/23 01:29:01;;;;;;;;;;;;;;;16.13;53.13;97318.31;5136013;27;19924;-59
2022/05/23 01:31:57;;;;;;;;;;;;;;;15.84;53.88;97316.97;5143710;27;19975;-59
2022/05/23 01:34:33;;;;;;;;;;;;;;;15.81;53.97;97321.19;5141165;27;19946;-58
2022/05/23 01:37:07;;;;;;;;;;;;;;;15.80;53.54;97316.09;5141214;27;19973;-59
2022/05/23 01:39:46;;;;;;;;;;;;;;;15.69;54.37;97313.13;5130606;27;19923;-58
2022/05/23 01:42:15;;;;;;;;;;;;;;;15.57;53.93;97313.22;5164896;27;20049;-59
2022/05/23 01:44:44;;;;;;;;;;;;;;;15.53;54.30;97306.88;5161138;27;19945;-58
2022/05/23 01:47:17;;;;;;;;;;;;;;;15.44;54.40;97304.34;5141424;27;19926;-60
2022/05/23 01:49:59;;;;;;;;;;;;;;;15.59;53.94;97300.75;5141842;27;19918;-58
2022/05/23 01:52:51;;;;;;;;;;;;;;;15.53;53.89;97307.66;5139651;27;19923;-59
2022/05/23 01:55:24;;;;;;;;;;;;;;;15.45;54.74;97295.00;5135561;27;19922;-59
2022/05/23 01:58:09;;;;;;;;;;;;;;;15.48;54.06;97288.78;5137872;27;19930;-60
2022/05/23 02:03:31;;;;;;;;;;;;;;;15.30;55.03;97287.63;5129251;27;19987;-60
2022/05/23 02:06:00;;;;;;;;;;;;;;;15.30;54.47;97288.41;5135168;27;20252;-59
2022/05/23 02:08:28;;;;;;;;;;;;;;;15.23;54.85;97287.44;5140975;27;19994;-59
2022/05/23 02:10:57;;;;;;;;;;;;;;;15.26;54.74;97284.78;5131740;27;20349;-59
2022/05/23 02:13:33;;;;;;;;;;;;;;;15.18;55.12;97275.63;5135535;27;19972;-59
2022/05/23 02:16:02;;;;;;;;;;;;;;;15.11;55.30;97263.72;5145510;27;20018;-60
2022/05/23 02:18:47;;;;;;;;;;;;;;;15.15;55.14;97259.94;5149008;27;19954;-60
2022/05/23 02:21:16;;;;;;;;;;;;;;;15.12;55.37;97266.09;5145968;27;20335;-60
2022/05/23 02:23:43;;;;;;;;;;;;;;;15.05;55.38;97265.94;5104639;27;19968;-59
2022/05/23 02:26:15;;;;;;;;;;;;;;;15.09;55.24;97271.50;5126465;27;20392;-60
2022/05/23 02:28:54;;;;;;;;;;;;;;;15.43;54.41;97283.59;5134216;27;20309;-59
2022/05/23 02:31:27;;;;;;;;;;;;;;;15.22;54.75;97269.44;5123887;27;19958;-60
2022/05/23 02:34:00;;;;;;;;;;;;;;;15.14;55.22;97274.75;5141148;27;19930;-59
2022/05/23 02:36:41;;;;;;;;;;;;;;;15.28;54.89;97271.53;5139062;27;19983;-59
2022/05/23 02:39:45;;;;;;;;;;;;;;;15.07;55.46;97269.09;5134461;27;20003;-59
2022/05/23 02:42:18;;;;;;;;;;;;;;;15.14;55.15;97263.03;5138795;27;19935;-59
2022/05/23 02:44:49;;;;;;;;;;;;;;;15.07;55.24;97263.63;5141799;27;20430;-59
2022/05/23 02:47:22;;;;;;;;;;;;;;;14.99;55.88;97266.59;5142833;27;19953;-58
2022/05/23 02:49:52;;;;;;;;;;;;;;;15.38;54.79;97256.50;5135746;27;20015;-61
2022/05/23 02:52:54;;;;;;;;;;;;;;;15.10;55.51;97243.00;5132251;27;19994;-60
2022/05/23 02:55:29;;;;;;;;;;;;;;;14.99;55.71;97245.50;5128831;27;19926;-59
2022/05/23 02:57:59;;;;;;;;;;;;;;;14.97;55.73;97233.31;5137537;27;19972;-59
2022/05/23 03:00:32;;;;;;;;;;;;;;;15.04;55.62;97230.75;5142403;27;20314;-59
2022/05/23 03:03:03;;;;;;;;;;;;;;;14.99;55.69;97228.28;5138261;27;19954;-58
2022/05/23 03:05:40;;;;;;;;;;;;;;;14.91;56.02;97232.78;5135789;27;20364;-59
2022/05/23 03:08:12;;;;;;;;;;;;;;;14.84;56.41;97227.94;5146007;27;19929;-59
2022/05/23 03:10:40;;;;;;;;;;;;;;;15.15;55.31;97226.31;5134892;27;19926;-59
2022/05/23 03:13:10;;;;;;;;;;;;;;;14.80;56.26;97229.81;5125941;27;19941;-58
2022/05/23 03:15:44;;;;;;;;;;;;;;;14.82;56.15;97240.41;5147861;27;20377;-60
2022/05/23 03:18:38;;;;;;;;;;;;;;;15.03;55.33;97238.16;5133595;27;20003;-60
2022/05/23 03:21:07;;;;;;;;;;;;;;;14.80;56.09;97237.22;5143163;27;20355;-59
2022/05/23 03:29:15;;;;;;;;;;;;;;;14.75;56.53;97223.81;5136164;27;19996;-59
2022/05/23 03:31:48;;;;;;;;;;;;;;;15.06;55.61;97223.75;5125547;27;19995;-59
2022/05/23 03:34:17;;;;;;;;;;;;;;;14.77;55.92;97225.06;5140030;27;20177;-58
2022/05/23 03:37:09;;;;;;;;;;;;;;;14.71;56.25;97217.50;5127126;27;19927;-59
2022/05/23 03:39:38;;;;;;;;;;;;;;;14.90;56.04;97225.75;5127799;27;20335;-59
2022/05/23 03:42:06;;;;;;;;;;;;;;;14.80;56.27;97226.28;5140478;27;19946;-59
2022/05/23 03:44:34;;;;;;;;;;;;;;;14.84;55.83;97217.00;5142573;27;19919;-60
2022/05/23 03:47:04;;;;;;;;;;;;;;;15.05;55.31;97208.50;5130012;27;19927;-60
2022/05/23 03:49:33;;;;;;;;;;;;;;;14.81;55.65;97201.34;5124474;27;20019;-61
2022/05/23 03:52:01;;;;;;;;;;;;;;;14.72;56.15;97210.88;5116979;27;19972;-61
2022/05/23 03:54:29;;;;;;;;;;;;;;;14.76;55.99;97200.81;5115916;27;20029;-61
2022/05/23 03:57:00;;;;;;;;;;;;;;;14.92;55.54;97201.56;5141537;27;19954;-60
2022/05/23 03:59:28;;;;;;;;;;;;;;;14.98;55.48;97199.34;5135973;27;20030;-60
2022/05/23 04:01:57;;;;;;;;;;;;;;;14.89;55.57;97197.59;5136939;27;20289;-61
2022/05/23 04:07:48;;;;;;;;;;;;;;;14.75;55.97;97197.25;5102749;27;20311;-61
2022/05/23 04:10:27;;;;;;;;;;;;;;;14.92;55.79;97185.16;5134688;27;19991;-60
2022/05/23 04:12:57;;;;;;;;;;;;;;;14.83;55.91;97181.84;5129778;27;20220;-61
2022/05/23 04:15:27;;;;;;;;;;;;;;;14.73;56.22;97177.69;5117415;27;20390;-60
2022/05/23 04:17:57;;;;;;;;;;;;;;;14.74;55.90;97173.81;5138844;27;19927;-61
2022/05/23 04:20:29;;;;;;;;;;;;;;;14.76;55.85;97162.53;5114700;27;20329;-61
2022/05/23 04:23:08;;;;;;;;;;;;;;;14.75;56.06;97158.19;5129386;27;20273;-61
2022/05/23 04:25:39;;;;;;;;;;;;;;;14.77;55.69;97151.25;5140796;27;19963;-60
2022/05/23 04:28:07;;;;;;;;;;;;;;;14.66;56.25;97153.72;5141484;27;19961;-60
2022/05/23 04:30:39;;;;;;;;;;;;;;;14.72;55.94;97150.72;5123039;27;20394;-60
2022/05/23 04:35:57;;;;;;;;;;;;;;;14.74;55.98;97149.19;5144226;27;20473;-61
2022/05/23 04:38:32;;;;;;;;;;;;;;;14.89;55.03;97147.59;5133552;27;20044;-61
2022/05/23 04:41:06;;;;;;;;;;;;;;;14.80;56.00;97155.19;5137180;27;20172;-60
2022/05/23 04:43:50;;;;;;;;;;;;;;;14.86;55.51;97164.69;5106000;27;19977;-61
2022/05/23 04:46:23;;;;;;;;;;;;;;;14.66;56.16;97166.63;5129951;27;19927;-61
2022/05/23 04:51:57;;;;;;;;;;;;;;;14.83;56.01;97162.69;5136153;27;19954;-61
2022/05/23 04:54:33;;;;;;;;;;;;;;;14.90;55.38;97160.09;5131171;27;19947;-60
2022/05/23 04:57:03;;;;;;;;;;;;;;;14.87;55.73;97149.91;5137806;27;20017;-60
2022/05/23 04:59:34;;;;;;;;;;;;;;;14.89;55.86;97147.59;5129988;27;20338;-60
2022/05/23 05:02:05;;;;;;;;;;;;;;;15.04;55.60;97146.75;5127082;27;19920;-60
2022/05/23 05:07:27;;;;;;;;;;;;;;;14.90;55.86;97143.69;5128408;27;19919;-58
2022/05/23 05:09:58;;;;;;;;;;;;;;;14.85;55.74;97147.50;5122434;27;19923;-61
2022/05/23 05:12:26;;;;;;;;;;;;;;;14.87;55.84;97147.94;5141826;27;19923;-61
2022/05/23 05:14:54;;;;;;;;;;;;;;;15.02;55.94;97146.31;5125081;27;19919;-60
2022/05/23 05:17:23;;;;;;;;;;;;;;;15.12;55.94;97155.88;5127510;27;20034;-61
2022/05/23 05:19:51;;;;;;;;;;;;;;;15.18;55.33;97163.47;5122088;27;19919;-58
2022/05/23 05:25:56;;;;;;;;;;;;;;;15.38;55.19;97166.97;5130643;27;19924;-60
2022/05/23 05:28:31;;;;;;;;;;;;;;;15.56;54.87;97167.34;5129991;27;20344;-58
2022/05/23 05:31:01;;;;;;;;;;;;;;;15.60;54.00;97170.91;5129541;27;19927;-59
2022/05/23 05:33:30;;;;;;;;;;;;;;;15.95;53.55;97175.50;5147452;27;20026;-58
2022/05/23 05:35:58;;;;;;;;;;;;;;;15.79;53.93;97172.88;5140169;27;19924;-58
2022/05/23 05:38:31;;;;;;;;;;;;;;;15.90;53.53;97184.03;5143253;27;19919;-59
2022/05/23 05:41:04;;;;;;;;;;;;;;;15.84;53.76;97197.22;5146579;27;19927;-60
2022/05/23 05:43:34;;;;;;;;;;;;;;;16.00;53.78;97199.06;5138624;27;20002;-59
2022/05/23 05:46:15;;;;;;;;;;;;;;;16.27;53.19;97208.94;5134768;27;20018;-61
2022/05/23 05:48:51;;;;;;;;;;;;;;;16.28;53.81;97209.75;5146516;27;19923;-59
2022/05/23 05:51:20;;;;;;;;;;;;;;;16.38;52.99;97215.41;5141587;27;19927;-60
2022/05/23 05:54:11;;;;;;;;;;;;;;;16.37;53.26;97216.56;5149521;27;20498;-59
2022/05/23 05:56:46;;;;;;;;;;;;;;;16.55;53.27;97227.03;5113438;27;19923;-59
2022/05/23 05:59:17;;;;;;;;;;;;;;;16.69;51.75;97228.06;5127071;27;20308;-60
2022/05/23 06:01:47;;;;;;;;;;;;;;;16.62;51.61;97230.69;5124938;27;19920;-62
2022/05/23 06:04:42;;;;;;;;;;;;;;;16.71;51.90;97233.19;5118342;27;20251;-59
2022/05/23 06:13:16;;;;;;;;;;;;;;;16.44;53.39;97281.69;5097063;27;20006;-59
2022/05/23 06:16:05;;;;;;;;;;;;;;;16.47;52.20;97314.66;5121401;27;19958;-59
2022/05/23 06:18:41;;;;;;;;;;;;;;;16.34;52.74;97356.31;5115207;27;19932;-59
2022/05/23 06:21:13;;;;;;;;;;;;;;;16.32;52.85;97383.28;5116135;27;20063;-60
2022/05/23 06:23:41;;;;;;;;;;;;;;;16.40;52.45;97390.47;5108235;27;19926;-59
2022/05/23 06:26:30;;;;;;;;;;;;;;;16.34;52.88;97383.72;5116791;27;19951;-62
2022/05/23 06:29:24;;;;;;;;;;;;;;;16.43;52.54;97387.03;5081199;27;19931;-60
2022/05/23 06:31:53;;;;;;;;;;;;;;;16.46;52.66;97369.88;5115943;27;19992;-62
2022/05/23 06:34:25;;;;;;;;;;;;;;;16.63;53.50;97361.19;5120214;27;20022;-60
2022/05/23 06:36:54;;;;;;;;;;;;;;;16.58;53.66;97369.69;5123474;27;20442;-60
2022/05/23 06:39:22;;;;;;;;;;;;;;;16.69;52.85;97356.97;5124165;27;19939;-62
2022/05/23 06:42:10;;;;;;;;;;;;;;;16.76;53.83;97350.84;5125029;27;19919;-60
2022/05/23 06:45:02;;;;;;;;;;;;;;;16.82;54.21;97343.09;5095252;27;20397;-59
2022/05/23 06:48:05;;;;;;;;;;;;;;;16.80;53.58;97337.97;5128145;27;19925;-60
2022/05/23 06:50:49;;;;;;;;;;;;;;;16.86;53.92;97330.25;5123383;27;19947;-59
2022/05/23 06:53:20;;;;;;;;;;;;;;;16.88;53.81;97330.66;5120350;27;20001;-60
2022/05/23 06:56:13;;;;;;;;;;;;;;;16.95;53.58;97336.28;5125846;27;20069;-60
2022/05/23 06:58:46;;;;;;;;;;;;;;;16.95;53.56;97333.53;5121270;27;19920;-59
2022/05/23 07:01:27;;;;;;;;;;;;;;;17.03;53.50;97329.72;5125095;27;19927;-59
2022/05/23 07:12:19;;;;;;;;;;;;;;;17.29;52.91;97327.00;5134461;27;20048;-60
2022/05/23 07:13:23;;;;;;;;;;;;;;;17.18;55.51;97306.84;5116094;27;19939;-61
2022/05/23 07:15:52;;;;;;;;;;;;;;;17.02;56.74;97292.47;5119622;27;19919;-60
2022/05/23 07:18:26;;;;;;;;;;;;;;;17.15;56.09;97273.84;5107217;27;19926;-60
2022/05/23 07:20:55;;;;;;;;;;;;;;;17.06;56.26;97252.16;5125969;27;20293;-60
2022/05/23 07:23:46;;;;;;;;;;;;;;;16.95;57.87;97254.75;5116469;27;20384;-60
2022/05/23 07:26:31;;;;;;;;;;;;;;;16.69;59.44;97277.44;5121210;27;20026;-60
2022/05/23 07:28:59;;;;;;;;;;;;;;;16.70;60.49;97280.97;5122329;27;20007;-60
2022/05/23 07:31:30;;;;;;;;;;;;;;;16.68;61.49;97256.66;5113227;27;19977;-59
2022/05/23 07:33:59;;;;;;;;;;;;;;;16.70;61.92;97221.41;5119595;27;20358;-60
2022/05/23 07:36:27;;;;;;;;;;;;;;;16.62;61.08;97203.28;5113021;27;19920;-60
2022/05/23 07:38:59;;;;;;;;;;;;;;;16.37;62.98;97180.16;5113807;27;19980;-60
2022/05/23 07:41:47;;;;;;;;;;;;;;;16.30;63.67;97156.16;5129537;27;19942;-58
2022/05/23 07:44:18;;;;;;;;;;;;;;;16.17;63.71;97149.28;5120135;27;19955;-59
2022/05/23 07:46:49;;;;;;;;;;;;;;;16.36;64.03;97124.53;5123986;27;20419;-59
2022/05/23 07:49:19;;;;;;;;;;;;;;;16.24;64.37;97100.03;5101956;27;19967;-59
2022/05/23 07:52:04;;;;;;;;;;;;;;;16.14;64.96;97093.25;5116893;27;20011;-59
2022/05/23 08:00:42;;;;;;;;;;;;;;;16.37;64.68;97049.34;5113463;27;19926;-59
2022/05/23 08:03:23;;;;;;;;;;;;;;;16.47;64.55;97045.19;5117588;27;20375;-59
2022/05/23 08:06:05;;;;;;;;;;;;;;;16.57;64.25;97043.75;5120455;27;19919;-62
2022/05/23 08:11:45;;;;;;;;;;;;;;;16.70;62.89;97026.69;5116333;28;19968;-58
2022/05/23 08:14:14;;;;;;;;;;;;;;;16.85;63.07;97029.63;5115992;27;20014;-60
2022/05/23 08:16:56;;;;;;;;;;;;;;;16.83;63.71;97020.97;5121321;27;19930;-58
2022/05/23 08:19:34;;;;;;;;;;;;;;;16.96;62.98;97005.84;5101342;28;20022;-62
2022/05/23 08:22:38;;;;;;;;;;;;;;;17.12;63.23;96989.19;5106159;28;19924;-59
2022/05/23 08:25:19;;;;;;;;;;;;;;;17.53;62.46;96984.47;5114552;28;19927;-60
2022/05/23 08:27:55;;;;;;;;;;;;;;;17.57;62.34;96985.28;5102215;28;19920;-58
2022/05/23 08:30:48;;;;;;;;;;;;;;;17.66;61.95;96969.25;5112872;27;20325;-59
2022/05/23 08:33:33;;;;;;;;;;;;;;;17.63;61.75;96969.22;5111956;27;20379;-58
2022/05/23 08:36:18;;;;;;;;;;;;;;;17.79;62.46;96970.59;5105745;28;19996;-58
2022/05/23 08:38:46;;;;;;;;;;;;;;;17.90;62.33;96967.13;5121555;27;20018;-58
2022/05/23 08:41:26;;;;;;;;;;;;;;;18.11;60.95;96967.28;5121408;27;19924;-58
2022/05/23 08:44:04;;;;;;;;;;;;;;;18.15;60.25;96981.81;5117683;28;19932;-61
2022/05/23 08:46:42;;;;;;;;;;;;;;;18.27;60.04;96980.72;5107527;27;20023;-58
2022/05/23 08:49:11;;;;;;;;;;;;;;;18.32;59.29;96981.13;5108855;28;20014;-58
2022/05/23 08:51:49;;;;;;;;;;;;;;;18.38;59.35;96980.78;5112887;28;20080;-59
2022/05/23 08:54:23;;;;;;;;;;;;;;;18.43;58.76;96978.44;5123019;27;19920;-58
2022/05/23 08:57:17;;;;;;;;;;;;;;;18.61;59.94;96975.75;5107832;27;20014;-59
2022/05/23 08:59:53;;;;;;;;;;;;;;;18.59;59.26;96965.16;5141926;27;20388;-59
2022/05/23 09:02:25;;;;;;;;;;;;;;;18.87;58.76;96963.72;5146092;27;19934;-59
2022/05/23 09:04:55;;;;;;;;;;;;;;;19.06;58.51;96965.31;5144676;27;19978;-60
2022/05/23 09:07:25;;;;;;;;;;;;;;;19.14;57.54;96966.13;5128278;27;19926;-62
2022/05/23 09:09:53;;;;;;;;;;;;;;;19.16;57.23;96959.03;5140954;27;19934;-61
2022/05/23 09:12:22;;;;;;;;;;;;;;;19.19;55.78;96952.78;5141574;27;20311;-60
2022/05/23 09:14:50;;;;;;;;;;;;;;;19.28;55.72;96949.63;5133314;27;20014;-59
2022/05/23 09:17:19;;;;;;;;;;;;;;;19.29;56.89;96946.50;5148006;27;19929;-60
2022/05/23 09:19:50;;;;;;;;;;;;;;;19.50;55.38;96940.22;5141563;27;19975;-60
2022/05/23 09:22:33;;;;;;;;;;;;;;;19.48;54.88;96939.00;5159470;27;19945;-60
2022/05/23 09:25:02;;;;;;;;;;;;;;;19.45;55.18;96931.56;5148418;27;19927;-59
2022/05/23 09:27:34;;;;;;;;;;;;;;;19.56;55.55;96932.34;5144150;27;19992;-60
2022/05/23 09:30:08;;;;;;;;;;;;;;;19.55;55.26;96919.75;5140518;27;19938;-60
2022/05/23 09:32:37;;;;;;;;;;;;;;;19.64;54.62;96920.16;5138357;27;19923;-60
2022/05/23 09:35:05;;;;;;;;;;;;;;;19.72;54.42;96918.97;5152490;27;19963;-60
2022/05/23 09:37:38;;;;;;;;;;;;;;;19.89;54.17;96929.19;5125155;27;19930;-58
2022/05/23 09:40:09;;;;;;;;;;;;;;;20.11;51.65;96927.16;5137700;27;20011;-58
2022/05/23 09:48:15;;;;;;;;;;;;;;;20.62;49.99;96933.34;5144711;27;20298;-58
2022/05/23 09:50:43;;;;;;;;;;;;;;;20.62;49.45;96931.38;5148878;27;19963;-58
2022/05/23 09:53:19;;;;;;;;;;;;;;;20.68;50.45;96934.50;5140926;27;20363;-58
2022/05/23 09:55:49;;;;;;;;;;;;;;;20.66;49.99;96928.56;5136800;27;21065;-57
2022/05/23 09:58:22;;;;;;;;;;;;;;;20.81;49.79;96927.31;5152388;27;19919;-58
2022/05/23 10:00:57;;;;;;;;;;;;;;;20.91;49.56;96932.00;5148726;27;19934;-60
2022/05/23 10:03:25;;;;;;;;;;;;;;;20.89;49.57;96923.34;5140544;27;19924;-58
2022/05/23 10:06:02;;;;;;;;;;;;;;;20.79;47.77;96924.19;5132923;27;19935;-59
2022/05/23 10:08:33;;;;;;;;;;;;;;;20.95;49.31;96925.69;5154052;27;19923;-59
2022/05/23 10:11:14;;;;;;;;;;;;;;;21.07;48.42;96934.28;5113046;27;19999;-60
2022/05/23 10:13:42;;;;;;;;;;;;;;;21.13;47.91;96938.16;5130302;27;19919;-59
2022/05/23 10:16:13;;;;;;;;;;;;;;;21.20;48.49;96926.31;5141121;27;20301;-60
2022/05/23 10:18:48;;;;;;;;;;;;;;;21.24;48.58;96926.28;5150321;27;19931;-58
2022/05/23 10:21:20;;;;;;;;;;;;;;;21.14;48.29;96927.91;5137273;27;19934;-59
2022/05/23 10:23:59;;;;;;;;;;;;;;;21.18;48.37;96923.16;5139864;27;19984;-58
2022/05/23 10:26:29;;;;;;;;;;;;;;;21.25;47.93;96920.31;5140611;27;19919;-59
2022/05/23 10:28:59;;;;;;;;;;;;;;;21.41;48.09;96920.66;5149104;27;20376;-59
2022/05/23 10:31:28;;;;;;;;;;;;;;;21.52;48.23;96923.34;5138054;27;19919;-57
2022/05/23 10:34:00;;;;;;;;;;;;;;;21.58;48.34;96926.44;5140526;27;20346;-57
2022/05/23 10:36:29;;;;;;;;;;;;;;;21.66;47.37;96922.41;5159362;27;19930;-57
2022/05/23 10:42:11;;;;;;;;;;;;;;;21.88;47.93;96918.25;5161093;27;19923;-58
2022/05/23 10:44:49;;;;;;;;;;;;;;;21.91;47.18;96925.75;5161794;27;19935;-57
2022/05/23 10:47:18;;;;;;;;;;;;;;;;;;5128054;27;19942;-58
2022/05/23 10:49:48;;;;;;;;;;;;;;;22.05;47.22;96924.00;5145064;27;19958;-62
2022/05/23 10:52:19;;;;;;;;;;;;;;;22.05;46.62;96924.00;5147933;27;20009;-58
2022/05/23 10:54:50;;;;;;;;;;;;;;;22.18;46.54;96914.81;5151165;27;20283;-57
2022/05/23 10:57:22;;;;;;;;;;;;;;;22.28;46.38;96920.66;5155508;27;19930;-58
2022/05/23 10:59:53;;;;;;;;;;;;;;;22.37;46.21;96918.97;5155280;27;19930;-57
2022/05/23 11:02:25;;;;;;;;;;;;;;;22.45;46.45;96917.69;5149005;27;19968;-58
2022/05/23 11:05:24;;;;;;;;;;;;;;;22.51;45.31;96908.91;5130724;27;20015;-60
2022/05/23 11:07:56;;;;;;;;;;;;;;;22.58;45.60;96917.91;5157158;27;19945;-58
2022/05/23 11:10:28;;;;;;;;;;;;;;;22.65;45.62;96912.28;5151912;27;19983;-58
2022/05/23 11:13:35;;;;;;;;;;;;;;;22.75;44.92;96916.13;5139140;27;20342;-58
2022/05/23 11:16:06;;;;;;;;;;;;;;;22.88;44.89;96919.94;5147270;27;19929;-57
2022/05/23 11:18:41;;;;;;;;;;;;;;;22.89;44.14;96921.50;5152362;27;19952;-58
2022/05/23 11:21:13;;;;;;;;;;;;;;;22.91;43.88;96908.03;5135382;27;20277;-58
2022/05/23 11:23:49;;;;;;;;;;;;;;;22.91;43.40;96910.78;5134350;27;19988;-58
2022/05/23 11:26:20;;;;;;;;;;;;;;;22.93;42.30;96908.38;5148172;27;19918;-58
2022/05/23 11:34:25;;;;;;;;;;;;;;;23.15;43.96;96913.63;5140639;27;19919;-58
2022/05/23 11:37:01;;;;;;;;;;;;;;;23.26;42.83;96917.00;5149127;27;19961;-58
2022/05/23 11:39:46;;;;;;;;;;;;;;;23.49;42.63;96914.28;5133944;27;19937;-58
2022/05/23 11:42:28;;;;;;;;;;;;;;;23.55;42.71;96922.91;5147909;27;19934;-58
2022/05/23 11:48:01;;;;;;;;;;;;;;;23.16;43.67;96929.03;5145813;27;20017;-58
2022/05/23 11:50:31;;;;;;;;;;;;;;;23.16;42.25;96929.03;5161663;27;20346;-58
2022/05/23 11:53:07;;;;;;;;;;;;;;;23.07;42.74;96931.56;5137588;27;19945;-57
2022/05/23 11:56:03;;;;;;;;;;;;;;;22.98;42.62;96919.00;5141142;27;20029;-57
2022/05/23 11:58:43;;;;;;;;;;;;;;;22.99;42.67;96923.31;5159703;27;20270;-58
2022/05/23 12:01:17;;;;;;;;;;;;;;;22.94;43.17;96928.56;5142942;27;19980;-58
2022/05/23 12:04:23;;;;;;;;;;;;;;;22.88;43.29;96936.53;5141935;27;20023;-58
2022/05/23 12:06:51;;;;;;;;;;;;;;;22.86;43.30;96932.59;5152486;27;19934;-57
2022/05/23 12:09:33;;;;;;;;;;;;;;;22.88;43.55;96935.75;5147857;27;19922;-57
2022/05/23 12:12:20;;;;;;;;;;;;;;;22.86;44.00;96933.38;5149341;27;19983;-58
2022/05/23 12:14:54;;;;;;;;;;;;;;;22.86;44.58;96922.31;5147960;27;19971;-58
2022/05/23 12:17:23;;;;;;;;;;;;;;;22.86;44.91;96916.00;5154956;27;20348;-59
2022/05/23 12:19:53;;;;;;;;;;;;;;;22.81;45.19;96908.16;5142519;27;19920;-57
2022/05/23 12:22:32;;;;;;;;;;;;;;;22.90;44.98;96909.19;5142294;27;20334;-59
2022/05/23 12:25:18;;;;;;;;;;;;;;;22.96;45.18;96906.78;5122325;27;19995;-56
2022/05/23 12:28:05;;;;;;;;;;;;;;;23.03;44.46;96908.66;5145472;27;20220;-58
2022/05/23 12:31:16;;;;;;;;;;;;;;;23.09;44.80;96904.22;5144883;27;19934;-58
2022/05/23 12:33:48;;;;;;;;;;;;;;;23.14;44.44;96909.28;5135525;27;19958;-58
2022/05/23 12:36:19;;;;;;;;;;;;;;;23.21;44.52;96909.94;5147432;27;19937;-58
2022/05/23 12:38:56;;;;;;;;;;;;;;;23.32;44.16;96901.47;5136560;27;19951;-58
2022/05/23 12:41:43;;;;;;;;;;;;;;;23.36;43.72;96898.66;5141230;27;20231;-59
2022/05/23 12:44:24;;;;;;;;;;;;;;;23.33;43.50;96902.25;5134969;27;20407;-58
2022/05/23 12:46:55;;;;;;;;;;;;;;;23.32;44.12;96909.78;5140428;27;19926;-58
2022/05/23 12:49:26;;;;;;;;;;;;;;;23.25;44.20;96910.69;5144784;27;19930;-58
2022/05/23 12:51:59;;;;;;;;;;;;;;;23.20;45.12;96913.16;5150376;27;19927;-59
2022/05/23 12:54:29;;;;;;;;;;;;;;;23.11;45.83;96913.66;5141429;27;20327;-58
2022/05/23 12:57:02;;;;;;;;;;;;;;;22.93;44.88;96927.78;5133134;27;19927;-58
2022/05/23 12:59:52;;;;;;;;;;;;;;;22.82;45.54;96926.31;5125538;27;19948;-57
2022/05/23 13:02:28;;;;;;;;;;;;;;;22.73;45.66;96921.28;5150962;27;19956;-57
2022/05/23 13:05:21;;;;;;;;;;;;;;;22.65;45.30;96930.91;5132628;27;19935;-57
2022/05/23 13:07:50;;;;;;;;;;;;;;;22.67;44.96;96939.56;5142994;27;19980;-59
2022/05/23 13:10:20;;;;;;;;;;;;;;;22.56;44.75;96941.69;5138698;27;20681;-58
2022/05/23 13:12:54;;;;;;;;;;;;;;;22.46;44.58;96938.59;5141080;27;20010;-57
2022/05/23 13:15:24;;;;;;;;;;;;;;;22.36;45.32;96931.22;5144534;27;19919;-58
2022/05/23 13:22:05;;;;;;;;;;;;;;;22.31;45.98;96931.66;5138916;27;20308;-58
2022/05/23 13:23:54;;;;;;;;;;;;;;;22.27;48.92;96936.47;5128672;27;19962;-58
2022/05/23 13:26:23;;;;;;;;;;;;;;;22.23;49.61;96936.50;5140972;27;19923;-59
2022/05/23 13:29:08;;;;;;;;;;;;;;;22.17;51.68;96949.22;5139639;27;20312;-58
2022/05/23 13:31:36;;;;;;;;;;;;;;;22.13;51.51;96953.22;5136925;27;19919;-57
2022/05/23 13:34:11;;;;;;;;;;;;;;;22.13;52.96;96942.94;5139509;27;19939;-58
2022/05/23 13:36:41;;;;;;;;;;;;;;;22.10;52.90;96937.41;5140822;27;19950;-58
2022/05/23 13:39:14;;;;;;;;;;;;;;;22.02;53.70;96935.91;5135244;27;19931;-58
2022/05/23 13:41:43;;;;;;;;;;;;;;;22.02;53.35;96933.16;5143426;27;20001;-58
2022/05/23 13:44:20;;;;;;;;;;;;;;;21.92;53.54;96932.84;5152164;27;19922;-58
2022/05/23 13:46:48;;;;;;;;;;;;;;;21.75;54.16;96922.75;5139795;27;19980;-58
2022/05/23 13:49:19;;;;;;;;;;;;;;;21.79;54.30;96923.50;5127425;27;19926;-58
2022/05/23 13:51:51;;;;;;;;;;;;;;;21.73;54.56;96913.28;5146832;27;19919;-58
2022/05/23 13:54:20;;;;;;;;;;;;;;;21.78;54.17;96904.53;5138048;27;19942;-58
2022/05/23 13:56:52;;;;;;;;;;;;;;;21.69;54.59;96892.00;5134789;27;20023;-58
2022/05/23 13:59:20;;;;;;;;;;;;;;;21.57;54.53;96888.94;5139220;27;19923;-59
2022/05/23 14:01:50;;;;;;;;;;;;;;;21.52;55.16;96881.06;5145570;27;19919;-58
2022/05/23 14:04:22;;;;;;;;;;;;;;;21.47;55.48;96862.19;5135885;27;19923;-58
2022/05/23 14:06:51;;;;;;;;;;;;;;;21.53;55.40;96843.97;5146152;27;20261;-58
2022/05/23 14:09:21;;;;;;;;;;;;;;;21.53;54.24;96832.94;5142501;27;19934;-58
2022/05/23 14:11:50;;;;;;;;;;;;;;;21.39;54.18;96812.50;5144310;27;20357;-59
2022/05/23 14:14:19;;;;;;;;;;;;;;;21.32;54.31;96789.69;5133618;27;20263;-58
2022/05/23 14:16:51;;;;;;;;;;;;;;;21.19;55.06;96761.75;5148051;27;19919;-58
2022/05/23 14:19:23;;;;;;;;;;;;;;;21.35;55.58;96761.25;5133643;27;19995;-58
2022/05/23 14:22:20;;;;;;;;;;;;;;;21.14;56.80;96753.91;5144674;27;19923;-58
2022/05/23 14:25:15;;;;;;;;;;;;;;;21.03;58.99;96736.66;5134670;27;20008;-58
2022/05/23 14:27:46;;;;;;;;;;;;;;;21.13;56.80;96735.78;5132999;27;19953;-61
2022/05/23 14:30:19;;;;;;;;;;;;;;;21.27;56.86;96738.41;5136888;27;19992;-60
2022/05/23 14:32:54;;;;;;;;;;;;;;;21.50;55.66;96718.44;5147204;27;20004;-59
2022/05/23 14:35:24;;;;;;;;;;;;;;;21.41;55.95;96688.56;5135702;27;19923;-59
2022/05/23 14:37:53;;;;;;;;;;;;;;;21.21;56.96;96676.53;5137950;27;19992;-58